Terminal Aerodrome Forecast
Issued by NWS

Home | Current Version | Previous Version | Text Only | Print | Product List | Glossary On
Versions: 1 2 3 4 5 6 7 8 9 10 11 12 13 14 15 16 17 18 19 20 21 22 23
000
FTUS43 KAPX 051207 AAB
TAFAPN
TAF AMD
KAPN 051207Z 0512/0612 25006KT P6SM OVC035
      TEMPO 0512/0514 OVC012
     FM051400 25007KT P6SM OVC025
     FM051700 26008G16KT P6SM BKN035
     FM052100 25006KT P6SM BKN050
     FM060700 16004KT P6SM BKN060=

USA.gov is the U.S. government's official web portal to all federal, state and local government web resources and services.